createdAt,value
2023-03-26T00:05:49.885Z,10.04
2023-03-26T00:11:56.323Z,10.03
2023-03-26T00:17:58.858Z,7.66
2023-03-26T00:24:06.333Z,8.39
2023-03-26T00:30:08.829Z,9.20
2023-03-26T00:36:15.328Z,7.82
2023-03-26T00:42:21.790Z,7.97
2023-03-26T00:48:37.820Z,8.99
2023-03-26T00:54:44.907Z,9.07
2023-03-26T01:00:59.611Z,9.18
2023-03-26T01:07:13.896Z,9.09
2023-03-26T01:13:21.359Z,9.11
2023-03-26T01:19:50.984Z,8.21
2023-03-26T01:26:10.540Z,8.24
2023-03-26T01:32:32.172Z,8.86
2023-03-26T01:39:12.386Z,7.47
2023-03-26T01:45:19.044Z,8.18
2023-03-26T01:51:35.746Z,7.71
2023-03-26T01:58:28.855Z,8.36
2023-03-26T02:05:03.347Z,7.92
2023-03-26T02:11:13.315Z,6.59
2023-03-26T02:17:15.070Z,7.42
2023-03-26T02:23:17.559Z,7.96
2023-03-26T02:29:24.012Z,8.04
2023-03-26T02:35:27.549Z,8.10
2023-03-26T02:41:29.971Z,8.24
2023-03-26T02:47:31.967Z,8.24
2023-03-26T02:53:34.945Z,8.25
2023-03-26T02:59:45.956Z,8.28
2023-03-26T03:05:47.838Z,8.39
2023-03-26T03:11:50.363Z,8.44
2023-03-26T03:17:52.836Z,8.11
2023-03-26T03:23:56.308Z,8.36
2023-03-26T03:30:02.754Z,8.32
2023-03-26T03:36:20.584Z,8.39
2023-03-26T03:42:25.806Z,8.40
2023-03-26T03:48:32.967Z,8.09
2023-03-26T03:54:35.798Z,8.24
2023-03-26T04:00:41.332Z,8.23
2023-03-26T04:06:45.741Z,8.49
2023-03-26T04:12:48.217Z,8.40
2023-03-26T04:18:50.674Z,7.90
2023-03-26T04:24:56.133Z,8.05
2023-03-26T04:31:01.630Z,8.19
2023-03-26T04:37:15.133Z,8.11
2023-03-26T04:43:24.276Z,6.80
2023-03-26T04:49:27.192Z,7.74
2023-03-26T04:55:42.669Z,8.47
2023-03-26T05:01:49.575Z,8.53
2023-03-26T05:08:13.026Z,8.69
2023-03-26T05:14:56.886Z,7.19
2023-03-26T05:21:40.797Z,7.28
2023-03-26T05:27:57.533Z,7.07
2023-03-26T05:34:06.988Z,8.81
2023-03-26T05:40:44.539Z,8.87
2023-03-26T06:23:49.803Z,9.21
2023-03-26T06:57:16.027Z,10.62
2023-03-26T07:09:58.075Z,11.23
2023-03-26T07:16:28.256Z,11.38
2023-03-26T07:23:40.692Z,10.44
2023-03-26T07:36:47.951Z,10.98
2023-03-26T07:43:29.934Z,10.40
2023-03-26T07:49:38.066Z,11.61
2023-03-26T07:56:14.898Z,12.31
2023-03-26T08:10:07.210Z,11.96
2023-03-26T08:37:12.510Z,13.44
2023-03-26T08:45:16.564Z,12.39
2023-03-26T09:13:02.906Z,15.05
2023-03-26T09:19:20.053Z,13.99
2023-03-26T09:39:36.035Z,14.01
2023-03-26T09:46:48.862Z,16.02
2023-03-26T09:53:16.555Z,15.60
2023-03-26T10:00:50.699Z,16.41
2023-03-26T10:14:14.758Z,15.29
2023-03-26T10:20:39.127Z,14.06
2023-03-26T10:27:08.689Z,14.30
2023-03-26T10:40:20.918Z,13.50
2023-03-26T10:47:11.126Z,13.24
2023-03-26T10:53:45.364Z,13.24
2023-03-26T10:59:47.604Z,12.17
2023-03-26T11:06:28.882Z,14.20
2023-03-26T11:13:07.765Z,13.33
2023-03-26T11:19:48.507Z,14.30
2023-03-26T11:32:46.651Z,14.43
2023-03-26T11:38:55.209Z,13.35
2023-03-26T11:45:13.287Z,13.42
2023-03-26T11:51:56.875Z,13.29
2023-03-26T11:58:15.336Z,13.65
2023-03-26T12:04:38.961Z,13.78
2023-03-26T12:10:51.956Z,12.31
2023-03-26T12:17:40.633Z,12.98
2023-03-26T12:24:07.546Z,14.42
2023-03-26T12:30:23.126Z,14.05
2023-03-26T12:36:54.067Z,14.19
2023-03-26T12:44:46.501Z,14.77
2023-03-26T12:50:34.162Z,14.82
2023-03-26T13:02:24.101Z,13.96
2023-03-26T13:03:18.147Z,14.67
2023-03-26T13:09:51.680Z,15.29
2023-03-26T13:16:59.689Z,14.18
2023-03-26T13:23:28.608Z,15.02
2023-03-26T13:29:52.234Z,14.48
2023-03-26T13:36:23.176Z,15.23
2023-03-26T13:42:40.256Z,16.01
2023-03-26T13:48:59.943Z,13.94
2023-03-26T13:55:47.831Z,13.49
2023-03-26T14:02:05.093Z,14.32
2023-03-26T14:08:46.634Z,14.73
2023-03-26T14:15:06.185Z,15.38
2023-03-26T14:21:57.245Z,15.07
2023-03-26T14:28:27.243Z,16.42
2023-03-26T14:34:39.780Z,16.58
2023-03-26T14:41:08.583Z,16.52
2023-03-26T14:47:37.308Z,15.99
2023-03-26T14:53:47.373Z,15.99
2023-03-26T15:00:14.515Z,16.23
2023-03-26T15:06:53.160Z,15.26
2023-03-26T15:13:27.199Z,14.66
2023-03-26T15:19:54.002Z,13.31
2023-03-26T15:26:46.690Z,14.08
2023-03-26T15:33:23.286Z,13.78
2023-03-26T15:39:59.829Z,14.22
2023-03-26T15:46:14.728Z,14.24
2023-03-26T15:52:26.938Z,13.52
2023-03-26T15:58:37.415Z,11.82
2023-03-26T16:04:52.042Z,13.07
2023-03-26T16:11:21.392Z,13.34
2023-03-26T16:18:10.482Z,12.46
2023-03-26T16:24:25.747Z,12.80
2023-03-26T16:30:31.216Z,13.06
2023-03-26T16:36:37.735Z,13.65
2023-03-26T16:42:48.221Z,13.76
2023-03-26T16:49:32.412Z,13.09
2023-03-26T16:55:59.565Z,13.21
2023-03-26T17:02:24.166Z,12.78
2023-03-26T17:09:03.584Z,10.82
2023-03-26T17:15:34.415Z,11.71
2023-03-26T17:21:54.812Z,11.81
2023-03-26T17:28:55.263Z,9.12
2023-03-26T17:35:05.011Z,11.38
2023-03-26T17:41:17.101Z,9.49
2023-03-26T17:47:38.437Z,10.74
2023-03-26T17:53:48.943Z,11.07
2023-03-26T17:59:57.034Z,8.97
2023-03-26T18:06:23.354Z,8.70
2023-03-26T18:12:33.560Z,9.69
2023-03-26T18:18:41.351Z,10.34
2023-03-26T18:24:48.264Z,10.30
2023-03-26T18:30:54.220Z,9.90
2023-03-26T18:37:27.276Z,10.53
2023-03-26T18:43:34.926Z,10.28
2023-03-26T18:49:38.287Z,10.48
2023-03-26T18:55:42.688Z,9.80
2023-03-26T19:01:49.197Z,9.48
2023-03-26T19:07:56.667Z,10.15
2023-03-26T19:14:05.184Z,9.17
2023-03-26T19:20:17.709Z,8.32
2023-03-26T19:26:20.205Z,9.00
2023-03-26T19:32:32.975Z,7.46
2023-03-26T19:38:50.227Z,9.54
2023-03-26T19:45:01.531Z,9.22
2023-03-26T19:51:08.188Z,8.84
2023-03-26T19:57:10.771Z,7.87
2023-03-26T20:03:13.287Z,6.94
2023-03-26T20:09:19.659Z,8.57
2023-03-26T20:15:28.143Z,8.59
2023-03-26T20:21:45.530Z,8.84
2023-03-26T20:27:51.130Z,8.73
2023-03-26T20:33:58.620Z,6.55
2023-03-26T20:40:01.083Z,7.71
2023-03-26T20:46:04.576Z,6.48
2023-03-26T20:52:07.034Z,6.73
2023-03-26T20:58:13.509Z,7.38
2023-03-26T21:04:19.952Z,6.15
2023-03-26T21:10:23.468Z,5.73
2023-03-26T21:16:28.929Z,6.89
2023-03-26T21:22:49.816Z,5.78
2023-03-26T21:28:55.926Z,6.86
2023-03-26T21:35:00.852Z,6.37
2023-03-26T21:41:04.198Z,5.65
2023-03-26T21:47:10.402Z,6.14
2023-03-26T21:53:15.879Z,6.86
2023-03-26T21:59:49.428Z,6.19
2023-03-26T22:05:56.953Z,5.52
2023-03-26T22:11:59.405Z,5.30
2023-03-26T22:18:05.967Z,5.00
2023-03-26T22:24:11.368Z,5.17
2023-03-26T22:30:18.158Z,5.04
2023-03-26T22:36:23.200Z,6.06
2023-03-26T22:42:34.373Z,6.30
2023-03-26T22:48:47.379Z,5.96
2023-03-26T22:54:52.114Z,5.84
2023-03-26T23:01:03.992Z,6.24
2023-03-26T23:07:07.948Z,6.10
2023-03-26T23:13:10.333Z,5.12
2023-03-26T23:19:12.811Z,5.20
2023-03-26T23:25:17.784Z,5.86
2023-03-26T23:31:20.842Z,5.41
2023-03-26T23:37:24.247Z,5.91
2023-03-26T23:43:29.727Z,5.94
2023-03-26T23:49:34.178Z,5.91
2023-03-26T23:55:36.779Z,5.96
